Time;durP1;ratioP1;P1;durP2;ratioP2;P2;SDS_P1;SDS_P2;PMS_P1;PMS_P2;Temp;Humidity;BMP_temperature;BMP_pressure;BME280_temperature;BME280_humidity;BME280_pressure;Samples;Min_cycle;Max_cycle;Signal;HPM_P1;HPM_P2
2023/05/10 00:00:40;;;;;;;1.20;0.63;;;;;;;24.24;100.00;95665.28;5006487;28;20088;-59
2023/05/10 00:03:09;;;;;;;2.13;1.00;;;;;;;24.75;100.00;95662.38;5005226;28;20073;-58
2023/05/10 00:05:37;;;;;;;2.95;0.90;;;;;;;25.75;100.00;95660.03;5008044;28;21124;-57
2023/05/10 00:08:05;;;;;;;1.77;1.00;;;;;;;25.68;100.00;95668.38;5007880;28;20553;-61
2023/05/10 00:10:34;;;;;;;1.17;0.82;;;;;;;25.70;100.00;95670.78;5008385;28;20092;-61
2023/05/10 00:13:02;;;;;;;1.58;0.90;;;;;;;25.61;100.00;95672.38;5007330;28;20092;-58
2023/05/10 00:15:32;;;;;;;2.00;1.08;;;;;;;25.51;100.00;95665.81;5005398;28;20081;-57
2023/05/10 00:18:00;;;;;;;3.63;1.40;;;;;;;24.48;100.00;95675.84;5007885;28;20088;-62
2023/05/10 00:20:28;;;;;;;2.38;1.30;;;;;;;25.16;100.00;95666.34;5002305;28;20078;-58
2023/05/10 00:22:57;;;;;;;1.95;1.15;;;;;;;24.75;100.00;95671.28;5009226;28;20069;-60
2023/05/10 00:25:25;;;;;;;1.73;1.02;;;;;;;25.45;100.00;95666.84;5006929;28;20074;-58
2023/05/10 00:27:55;;;;;;;2.47;1.27;;;;;;;25.32;100.00;95664.56;5004677;28;20089;-57
2023/05/10 00:30:23;;;;;;;2.17;1.40;;;;;;;25.87;100.00;95663.38;5002730;28;20081;-59
2023/05/10 00:32:53;;;;;;;1.67;1.30;;;;;;;26.25;98.23;95664.13;5002590;28;20625;-61
2023/05/10 00:35:21;;;;;;;3.10;1.25;;;;;;;26.42;97.72;95663.94;5001434;28;20081;-60
2023/05/10 00:37:49;;;;;;;2.13;1.40;;;;;;;25.97;100.00;95665.31;4998293;28;20086;-61
2023/05/10 00:40:18;;;;;;;2.00;1.50;;;;;;;25.54;100.00;95659.09;5005525;28;20085;-60
2023/05/10 00:42:46;;;;;;;2.42;1.30;;;;;;;25.62;100.00;95666.69;5003836;28;20180;-59
2023/05/10 00:45:15;;;;;;;2.38;1.33;;;;;;;25.43;100.00;95658.19;5003702;28;20069;-59
2023/05/10 00:47:43;;;;;;;2.33;1.20;;;;;;;25.76;100.00;95661.66;5005012;28;20096;-61
2023/05/10 00:50:13;;;;;;;2.88;1.30;;;;;;;25.31;100.00;95650.25;5003690;28;20085;-62
2023/05/10 00:52:42;;;;;;;3.65;1.73;;;;;;;25.36;100.00;95651.38;5005087;28;20088;-57
2023/05/10 00:55:12;;;;;;;3.97;1.50;;;;;;;25.20;100.00;95651.25;5003248;28;20082;-59
2023/05/10 00:57:40;;;;;;;2.17;1.20;;;;;;;25.44;100.00;95650.91;5004737;28;20533;-60
2023/05/10 01:00:11;;;;;;;1.50;1.17;;;;;;;25.73;100.00;95654.06;5006367;28;20081;-60
2023/05/10 01:02:39;;;;;;;2.70;1.27;;;;;;;25.88;100.00;95646.13;5000440;28;20462;-56
2023/05/10 01:05:08;;;;;;;1.75;1.20;;;;;;;26.34;93.24;95642.81;4997282;28;20081;-60
2023/05/10 01:07:37;;;;;;;2.05;1.20;;;;;;;25.86;100.00;95644.75;5006180;28;20093;-57
2023/05/10 01:10:07;;;;;;;1.13;1.00;;;;;;;25.50;100.00;95645.28;5002267;28;20082;-59
2023/05/10 01:12:37;;;;;;;1.42;1.20;;;;;;;25.64;100.00;95651.06;5004802;28;20419;-58
2023/05/10 01:15:07;;;;;;;1.85;1.10;;;;;;;26.01;99.67;95642.91;5004576;28;20092;-57
2023/05/10 01:17:36;;;;;;;2.15;1.20;;;;;;;25.83;100.00;95648.78;5005550;28;20077;-56
2023/05/10 01:20:07;;;;;;;1.60;1.30;;;;;;;25.55;100.00;95647.19;5005002;28;20089;-63
2023/05/10 01:23:04;;;;;;;3.30;1.10;;;;;;;25.50;100.00;95645.28;5005268;28;20069;-50
2023/05/10 01:26:00;;;;;;;3.30;1.10;;;;;;;25.39;100.00;95642.75;5003822;28;20081;-51
2023/05/10 01:29:06;;;;;;;1.40;0.95;;;;;;;25.37;100.00;95647.63;4996322;28;20077;-55
2023/05/10 01:32:05;;;;;;;1.40;0.90;;;;;;;26.20;94.81;95647.91;4969291;28;20520;-50
2023/05/10 01:34:36;;;;;;;1.70;1.00;;;;;;;25.69;100.00;95647.56;5003881;28;20097;-51
2023/05/10 01:37:08;;;;;;;3.08;1.08;;;;;;;26.23;93.84;95640.06;5003789;28;20081;-55
2023/05/10 01:39:44;;;;;;;1.20;1.00;;;;;;;24.86;100.00;95650.63;5003711;28;20126;-57
2023/05/10 01:42:15;;;;;;;1.25;0.85;;;;;;;25.84;98.88;95649.56;5005549;28;20100;-50
2023/05/10 01:44:50;;;;;;;1.95;0.90;;;;;;;25.12;100.00;95645.50;5006273;28;20097;-52
2023/05/10 01:47:25;;;;;;;1.15;0.80;;;;;;;25.75;100.00;95646.53;5003898;28;20089;-55
2023/05/10 01:49:55;;;;;;;1.65;0.93;;;;;;;25.18;100.00;95642.59;5005366;28;20525;-57
2023/05/10 01:52:26;;;;;;;;;;;;;;;24.81;100.00;95645.16;5006632;28;20088;-53
2023/05/10 01:54:57;;;;;;;1.08;0.80;;;;;;;25.03;100.00;95645.13;5005207;28;19968;-50
2023/05/10 01:57:26;;;;;;;;;;;;;;;24.74;100.00;95647.25;5005603;28;20478;-55
2023/05/10 01:59:56;;;;;;;0.90;0.80;;;;;;;24.47;100.00;95652.66;5003951;28;19940;-56
2023/05/10 02:02:26;;;;;;;2.03;0.90;;;;;;;24.75;100.00;95644.31;5005977;28;20489;-54
2023/05/10 02:04:56;;;;;;;1.30;0.80;;;;;;;24.97;100.00;95654.25;5004649;28;20096;-52
2023/05/10 02:07:25;;;;;;;0.85;0.60;;;;;;;25.44;100.00;95650.91;5001686;28;20578;-55
2023/05/10 02:09:53;;;;;;;1.63;0.70;;;;;;;24.54;100.00;95656.78;5005404;28;20073;-52
2023/05/10 02:12:23;;;;;;;1.38;0.80;;;;;;;25.32;100.00;95651.88;5005723;28;20090;-52
2023/05/10 02:14:52;;;;;;;1.10;0.70;;;;;;;25.36;100.00;95649.47;5006121;28;20552;-51
2023/05/10 02:17:21;;;;;;;1.00;0.68;;;;;;;25.32;100.00;95651.06;5003285;28;20082;-50
2023/05/10 02:19:52;;;;;;;1.27;0.73;;;;;;;24.81;100.00;95650.56;5005364;28;20108;-54
2023/05/10 02:22:20;;;;;;;0.88;0.60;;;;;;;25.16;100.00;95646.63;4999006;28;20173;-53
2023/05/10 02:24:50;;;;;;;2.85;0.70;;;;;;;25.15;100.00;95648.50;5003754;28;20564;-55
2023/05/10 02:27:19;;;;;;;0.73;0.65;;;;;;;24.80;100.00;95647.06;5003245;28;20081;-55
2023/05/10 02:29:48;;;;;;;0.80;0.77;;;;;;;25.05;100.00;95651.06;5003662;28;20089;-56
2023/05/10 02:32:17;;;;;;;2.67;0.80;;;;;;;25.70;93.69;95643.78;5006497;28;20073;-51
2023/05/10 02:34:46;;;;;;;0.70;0.70;;;;;;;25.09;100.00;95649.50;4999070;28;20073;-56
2023/05/10 02:37:18;;;;;;;1.73;0.60;;;;;;;24.39;100.00;95659.25;4999143;28;20482;-49
2023/05/10 02:39:47;;;;;;;0.90;0.63;;;;;;;24.61;100.00;95660.09;5003631;28;20085;-53
2023/05/10 02:42:18;;;;;;;1.70;0.70;;;;;;;25.10;100.00;95645.72;5003149;28;20089;-52
2023/05/10 02:44:49;;;;;;;0.88;0.77;;;;;;;25.24;99.81;95644.25;5008416;28;20104;-52
2023/05/10 02:47:17;;;;;;;;;;;;;;;24.99;100.00;95649.41;5003896;28;20096;-56
2023/05/10 02:49:45;;;;;;;0.70;0.60;;;;;;;25.05;100.00;95651.06;5006508;28;19956;-55
2023/05/10 02:52:17;;;;;;;1.20;0.65;;;;;;;25.05;100.00;95651.06;5006889;28;20096;-52
2023/05/10 02:54:47;;;;;;;1.08;0.60;;;;;;;25.02;100.00;95655.13;5001359;28;20085;-56
2023/05/10 02:57:19;;;;;;;1.67;0.60;;;;;;;24.91;100.00;95655.25;5008071;28;20104;-50
2023/05/10 02:59:47;;;;;;;1.00;0.50;;;;;;;24.72;100.00;95655.63;5004944;28;20081;-55
2023/05/10 03:02:15;;;;;;;0.70;0.60;;;;;;;25.27;100.00;95645.66;5005307;28;20104;-53
2023/05/10 03:04:44;;;;;;;0.60;0.45;;;;;;;25.20;100.00;95651.25;5008011;28;20467;-52
2023/05/10 03:07:12;;;;;;;1.63;0.40;;;;;;;24.59;100.00;95647.91;4999610;28;20086;-50
2023/05/10 03:09:42;;;;;;;1.65;0.60;;;;;;;25.00;100.00;95651.03;5007440;28;20088;-53
2023/05/10 03:12:16;;;;;;;0.43;0.38;;;;;;;23.51;100.00;95666.38;5016504;28;20077;-53
2023/05/10 03:14:50;;;;;;;1.85;0.30;;;;;;;23.95;100.00;95661.09;5005371;28;20437;-55
2023/05/10 03:17:24;;;;;;;1.45;0.50;;;;;;;24.63;100.00;95655.25;5005491;28;20104;-52
2023/05/10 03:19:55;;;;;;;0.50;0.40;;;;;;;24.31;100.00;95662.38;5007737;28;20557;-51
2023/05/10 03:22:26;;;;;;;0.95;0.50;;;;;;;24.56;100.00;95659.19;5007742;28;20450;-50
2023/05/10 03:24:57;;;;;;;1.38;0.40;;;;;;;24.11;100.00;95655.66;5007454;28;20506;-51
2023/05/10 03:27:26;;;;;;;;;;;;;;;24.72;100.00;95658.31;5006317;28;20081;-54
2023/05/10 03:29:55;;;;;;;0.70;0.50;;;;;;;24.82;100.00;95661.13;5003994;28;19984;-52
2023/05/10 03:32:24;;;;;;;0.80;0.47;;;;;;;24.96;100.00;95664.22;5006454;28;20087;-51
2023/05/10 03:34:52;;;;;;;0.70;0.55;;;;;;;24.92;100.00;95660.41;5006802;28;20129;-49
2023/05/10 03:37:21;;;;;;;0.82;0.40;;;;;;;24.61;100.00;95670.06;5001000;28;20082;-51
2023/05/10 03:39:49;;;;;;;0.70;0.50;;;;;;;24.34;100.00;95675.38;5007174;28;20092;-56
2023/05/10 03:42:19;;;;;;;0.63;0.43;;;;;;;24.29;100.00;95672.59;5004994;28;20085;-51
2023/05/10 03:44:49;;;;;;;0.60;0.50;;;;;;;23.84;100.00;95679.00;5005603;28;20100;-50
2023/05/10 03:47:17;;;;;;;1.58;0.73;;;;;;;23.57;100.00;95673.44;5002669;28;20500;-54
2023/05/10 03:49:45;;;;;;;2.42;0.60;;;;;;;23.18;100.00;95676.03;5007244;28;20097;-54
2023/05/10 03:52:13;;;;;;;1.38;0.40;;;;;;;23.23;100.00;95678.84;5004412;28;20089;-56
2023/05/10 03:54:42;;;;;;;2.92;0.60;;;;;;;23.72;100.00;95683.66;5004403;28;20485;-52
2023/05/10 03:57:10;;;;;;;0.82;0.63;;;;;;;22.47;100.00;95686.25;5003370;28;20090;-53
2023/05/10 03:59:40;;;;;;;1.55;1.00;;;;;;;23.21;100.00;95686.31;5006737;28;20074;-47
2023/05/10 04:02:08;;;;;;;0.75;0.60;;;;;;;23.07;100.00;95682.31;5007943;28;20057;-51
2023/05/10 04:04:36;;;;;;;0.88;0.47;;;;;;;23.08;100.00;95686.63;5006230;28;20086;-53
2023/05/10 04:07:05;;;;;;;1.50;0.68;;;;;;;23.76;100.00;95682.13;5007878;28;20486;-49
2023/05/10 04:09:33;;;;;;;0.60;0.40;;;;;;;22.62;100.00;95694.63;5004845;28;20089;-50
2023/05/10 04:12:02;;;;;;;2.83;0.45;;;;;;;23.00;100.00;95692.41;5004312;28;20085;-52
2023/05/10 04:14:31;;;;;;;3.60;0.47;;;;;;;23.52;100.00;95687.63;5012728;28;20082;-52
2023/05/10 04:17:10;;;;;;;0.60;0.40;;;;;;;23.41;100.00;95692.03;4990612;28;20048;-54
2023/05/10 04:19:42;;;;;;;1.73;0.50;;;;;;;23.73;100.00;95688.00;5006921;28;20355;-54
2023/05/10 04:22:48;;;;;;;0.50;0.45;;;;;;;24.15;100.00;95689.13;5008714;28;20525;-50
2023/05/10 04:25:22;;;;;;;;;;;;;;;24.22;100.00;95688.13;5011851;28;20030;-58
2023/05/10 04:27:52;;;;;;;0.65;0.40;;;;;;;23.12;100.00;95693.97;5005335;28;20293;-53
2023/05/10 04:30:25;;;;;;;0.57;0.50;;;;;;;23.65;100.00;95697.28;5005829;28;20522;-54
2023/05/10 04:33:02;;;;;;;0.50;0.40;;;;;;;24.00;100.00;95693.50;5012294;28;20046;-51
2023/05/10 04:35:39;;;;;;;1.70;0.50;;;;;;;23.80;100.00;95694.81;4989374;28;20038;-54
2023/05/10 04:38:15;;;;;;;2.45;0.43;;;;;;;23.66;100.00;95696.19;5001054;28;20514;-57
2023/05/10 04:40:51;;;;;;;1.05;0.60;;;;;;;23.77;100.00;95699.88;5004557;28;20089;-51
2023/05/10 04:43:21;;;;;;;0.75;0.40;;;;;;;24.13;100.00;95701.22;4990478;28;20057;-53
2023/05/10 04:45:50;;;;;;;0.43;0.40;;;;;;;22.86;100.00;95708.81;5014835;28;20096;-55
2023/05/10 04:48:21;;;;;;;0.60;0.50;;;;;;;23.78;100.00;95699.66;5006451;28;20100;-51
2023/05/10 04:50:49;;;;;;;0.60;0.45;;;;;;;22.65;100.00;95710.28;5005541;28;20074;-57
2023/05/10 04:53:18;;;;;;;0.40;0.40;;;;;;;23.82;100.00;95702.69;5001348;28;20185;-53
2023/05/10 04:55:48;;;;;;;0.50;0.40;;;;;;;23.74;100.00;95703.88;5008540;28;20074;-56
2023/05/10 04:58:17;;;;;;;0.88;0.50;;;;;;;23.36;100.00;95707.28;5002840;28;20545;-48
2023/05/10 05:00:45;;;;;;;1.95;0.65;;;;;;;22.80;100.00;95711.63;5002988;28;20086;-52
2023/05/10 05:03:14;;;;;;;0.55;0.50;;;;;;;22.92;100.00;95710.56;5001490;28;20081;-48
2023/05/10 05:05:44;;;;;;;2.28;0.93;;;;;;;23.55;100.00;95711.38;5003500;28;20818;-51
2023/05/10 05:08:13;;;;;;;0.63;0.38;;;;;;;22.10;100.00;95720.66;5002857;28;20101;-54
2023/05/10 05:10:44;;;;;;;1.25;0.65;;;;;;;22.85;100.00;95722.47;5009931;28;20085;-51
2023/05/10 05:13:14;;;;;;;1.45;0.30;;;;;;;22.24;100.00;95722.88;5010902;28;20382;-54
2023/05/10 05:15:43;;;;;;;52.15;41.58;;;;;;;21.64;100.00;95735.69;5009920;28;20042;-54
2023/05/10 05:18:14;;;;;;;124.10;101.65;;;;;;;21.03;100.00;95730.41;4998064;28;20061;-49
2023/05/10 05:20:44;;;;;;;;;;;;;;;22.14;100.00;95735.25;5003240;28;20053;-55
2023/05/10 05:23:12;;;;;;;103.65;80.88;;;;;;;20.93;100.00;95746.22;4998753;28;19969;-49
2023/05/10 05:25:41;;;;;;;89.20;63.47;;;;;;;20.80;100.00;95741.84;4998976;28;20085;-54
2023/05/10 05:28:13;;;;;;;135.18;95.45;;;;;;;21.23;100.00;95742.69;5010468;28;20077;-59
2023/05/10 05:30:41;;;;;;;0.55;0.38;;;;;;;21.92;100.00;95735.84;4993899;28;20045;-57
2023/05/10 05:33:10;;;;;;;0.85;0.60;;;;;;;22.67;100.00;95748.47;5011891;28;20075;-56
2023/05/10 05:35:39;;;;;;;7.95;2.45;;;;;;;22.86;100.00;95751.00;5011227;28;20409;-56
2023/05/10 05:38:09;;;;;;;5.90;4.38;;;;;;;22.47;100.00;95753.44;5009947;28;20077;-55
2023/05/10 05:40:38;;;;;;;120.72;89.47;;;;;;;22.41;100.00;95747.16;5009166;28;20559;-56
2023/05/10 05:43:08;;;;;;;4.07;2.35;;;;;;;22.79;100.00;95764.59;5011530;28;20048;-49
2023/05/10 05:45:40;;;;;;;1.48;0.90;;;;;;;22.34;100.00;95753.72;5007722;28;20579;-55
2023/05/10 05:48:09;;;;;;;15.15;13.57;;;;;;;22.41;100.00;95765.16;4992847;28;20038;-49
2023/05/10 05:50:38;;;;;;;16.90;11.68;;;;;;;21.86;100.00;95774.34;5009200;28;20069;-54
2023/05/10 05:53:06;;;;;;;11.35;8.18;;;;;;;22.76;100.00;95775.81;5000571;28;20446;-53
2023/05/10 05:55:35;;;;;;;6.40;1.85;;;;;;;23.24;100.00;95773.81;5003289;28;20073;-54
2023/05/10 05:58:04;;;;;;;3.03;0.40;;;;;;;22.83;100.00;95775.69;5002554;28;20081;-54
2023/05/10 06:00:32;;;;;;;0.65;0.60;;;;;;;22.93;100.00;95775.91;5002591;28;20081;-57
2023/05/10 06:03:01;;;;;;;0.30;0.30;;;;;;;22.81;100.00;95778.59;5001799;28;20056;-54
2023/05/10 06:05:29;;;;;;;117.55;78.05;;;;;;;22.81;100.00;95781.28;5006760;28;20073;-55
2023/05/10 06:07:58;;;;;;;0.40;0.40;;;;;;;22.92;100.00;95787.69;5005180;28;20088;-55
2023/05/10 06:10:26;;;;;;;1.30;0.50;;;;;;;23.57;100.00;95786.47;5008397;28;20082;-54
2023/05/10 06:12:56;;;;;;;1.75;0.47;;;;;;;23.61;100.00;95788.47;5004591;28;20078;-53
2023/05/10 06:15:25;;;;;;;0.30;0.30;;;;;;;23.27;100.00;95798.34;5007322;28;20103;-53
2023/05/10 06:17:53;;;;;;;1.00;0.40;;;;;;;22.83;100.00;95787.25;5003416;28;20148;-54
2023/05/10 06:20:21;;;;;;;1.13;0.55;;;;;;;23.80;100.00;95799.84;5007426;28;20514;-56
2023/05/10 06:22:50;;;;;;;2.50;0.60;;;;;;;23.38;100.00;95813.63;5012261;28;20092;-57
2023/05/10 06:25:19;;;;;;;1.33;0.50;;;;;;;23.56;100.00;95819.84;5011056;28;20069;-54
2023/05/10 06:27:48;;;;;;;7.78;5.05;;;;;;;23.82;100.00;95813.88;5007068;28;20046;-57
2023/05/10 06:30:22;;;;;;;2.90;0.60;;;;;;;23.69;100.00;95816.88;5016625;28;20041;-51
2023/05/10 06:32:51;;;;;;;10.20;9.13;;;;;;;23.26;100.00;95826.28;5005232;28;20116;-53
2023/05/10 06:35:20;;;;;;;1.38;0.90;;;;;;;23.90;100.00;95815.34;5012285;28;20077;-55
2023/05/10 06:37:48;;;;;;;1.17;0.70;;;;;;;23.71;100.00;95825.53;5011159;28;20092;-56
2023/05/10 06:40:17;;;;;;;1.95;0.60;;;;;;;24.48;100.00;95822.19;5015199;28;20092;-56
2023/05/10 06:42:45;;;;;;;2.10;0.47;;;;;;;24.34;100.00;95815.50;5013028;28;20082;-57
2023/05/10 06:45:14;;;;;;;1.42;0.50;;;;;;;23.97;100.00;95823.28;5009017;28;20074;-52
2023/05/10 06:47:45;;;;;;;55.58;43.78;;;;;;;21.82;100.00;95842.97;5001549;28;20541;-53
2023/05/10 06:50:13;;;;;;;40.97;35.33;;;;;;;22.90;100.00;95838.19;5001665;28;20082;-52
2023/05/10 06:52:43;;;;;;;1.20;0.80;;;;;;;24.15;100.00;95829.22;5009421;28;20538;-55
2023/05/10 06:55:12;;;;;;;0.87;0.77;;;;;;;24.35;99.84;95836.78;5011618;28;20061;-58
2023/05/10 06:57:41;;;;;;;1.98;0.80;;;;;;;24.76;94.53;95825.81;5005511;28;20089;-58
2023/05/10 07:00:10;;;;;;;0.93;0.60;;;;;;;24.49;92.04;95831.09;5011937;28;20486;-53
2023/05/10 07:02:38;;;;;;;0.82;0.60;;;;;;;24.55;92.70;95830.09;5007031;28;20088;-54
2023/05/10 07:05:13;;;;;;;0.75;0.52;;;;;;;25.14;88.60;95835.75;5005580;28;20100;-57
2023/05/10 07:07:42;;;;;;;1.15;0.70;;;;;;;23.92;95.09;95845.56;5008576;28;20088;-53
2023/05/10 07:10:11;;;;;;;0.82;0.60;;;;;;;24.46;89.21;95840.47;5005560;28;20081;-59
2023/05/10 07:12:39;;;;;;;0.55;0.50;;;;;;;23.58;94.54;95833.88;5010499;28;20699;-59
2023/05/10 07:15:09;;;;;;;4.50;2.70;;;;;;;23.39;99.79;95849.41;4995126;28;20061;-56
2023/05/10 07:17:38;;;;;;;4.90;0.75;;;;;;;22.98;100.00;95849.41;5022191;28;20072;-60
2023/05/10 07:20:10;;;;;;;0.90;0.70;;;;;;;23.76;96.96;95846.34;5012770;28;20076;-57
2023/05/10 07:22:38;;;;;;;2.60;1.10;;;;;;;23.80;95.65;95842.09;5008646;28;20081;-54
2023/05/10 07:25:08;;;;;;;2.55;0.73;;;;;;;24.04;92.53;95848.97;5015307;28;20494;-57
2023/05/10 07:27:37;;;;;;;1.92;0.90;;;;;;;23.41;93.72;95850.00;5023443;28;20049;-55
2023/05/10 07:30:08;;;;;;;1.05;0.77;;;;;;;25.46;79.26;95851.22;5013953;28;20100;-58
2023/05/10 07:32:37;;;;;;;1.90;1.08;;;;;;;24.61;81.89;95858.78;5009397;28;20699;-56
2023/05/10 07:35:11;;;;;;;1.80;1.25;;;;;;;25.66;80.35;95848.72;4986365;28;20138;-54
2023/05/10 07:37:40;;;;;;;1.23;0.88;;;;;;;25.30;75.10;95853.75;5013321;28;20513;-60
2023/05/10 07:40:13;;;;;;;2.25;0.80;;;;;;;25.11;76.87;95852.44;5002157;28;20046;-55
2023/05/10 07:42:43;;;;;;;1.60;0.90;;;;;;;25.17;81.88;95858.72;5009642;28;20061;-59
2023/05/10 07:45:12;;;;;;;2.22;1.23;;;;;;;25.98;73.17;95843.41;5001609;28;20537;-59
2023/05/10 07:47:40;;;;;;;2.15;0.90;;;;;;;26.60;67.48;95849.28;5011048;28;20078;-60
2023/05/10 07:50:11;;;;;;;0.90;0.73;;;;;;;25.31;73.67;95860.78;5011060;28;20088;-53
2023/05/10 07:52:39;;;;;;;1.92;1.27;;;;;;;25.32;75.18;95858.88;5010093;28;20082;-57
2023/05/10 07:55:08;;;;;;;1.48;1.05;;;;;;;25.48;75.30;95866.09;5010592;28;20076;-57
2023/05/10 07:57:38;;;;;;;1.40;1.02;;;;;;;25.71;69.88;95864.19;5006112;28;20556;-53
2023/05/10 08:00:07;;;;;;;2.75;1.05;;;;;;;26.52;68.26;95858.69;5010278;28;20092;-57
2023/05/10 08:02:36;;;;;;;1.00;0.80;;;;;;;27.10;63.08;95859.56;5010760;28;20078;-59
2023/05/10 08:05:06;;;;;;;1.38;0.90;;;;;;;26.06;69.81;95857.50;5009998;28;20085;-56
2023/05/10 08:07:35;;;;;;;2.17;1.05;;;;;;;27.27;67.88;95858.59;5010225;28;20073;-57
2023/05/10 08:10:04;;;;;;;0.60;0.47;;;;;;;27.58;61.10;95852.19;5009941;28;20477;-55
2023/05/10 08:12:35;;;;;;;1.95;1.02;;;;;;;26.83;65.69;95854.28;5006426;28;20081;-59
2023/05/10 08:15:05;;;;;;;2.20;0.80;;;;;;;27.03;61.56;95847.34;5010352;28;20100;-55
2023/05/10 08:17:33;;;;;;;1.03;0.77;;;;;;;26.68;66.76;95852.31;5000997;28;20065;-56
2023/05/10 08:20:05;;;;;;;0.75;0.75;;;;;;;26.58;64.88;95854.97;5010527;28;20500;-58
2023/05/10 08:22:35;;;;;;;0.88;0.75;;;;;;;26.62;64.67;95857.94;5009038;28;20084;-57
2023/05/10 08:25:04;;;;;;;0.75;0.50;;;;;;;26.58;68.17;95862.25;5010482;28;20073;-59
2023/05/10 08:27:36;;;;;;;0.95;0.60;;;;;;;27.20;60.26;95856.13;5010185;28;20081;-53
2023/05/10 08:30:05;;;;;;;0.38;0.38;;;;;;;27.26;61.50;95856.97;5010278;28;20538;-53
2023/05/10 08:32:35;;;;;;;3.40;0.70;;;;;;;27.27;59.64;95864.00;5011077;28;20046;-58
2023/05/10 08:35:03;;;;;;;0.90;0.70;;;;;;;27.49;61.81;95863.78;5009531;28;20080;-55
2023/05/10 08:37:32;;;;;;;0.70;0.50;;;;;;;27.17;58.97;95862.06;5009186;28;20095;-55
2023/05/10 08:40:03;;;;;;;0.93;0.55;;;;;;;26.86;59.26;95863.78;5006763;28;20081;-55
2023/05/10 08:42:31;;;;;;;0.65;0.57;;;;;;;26.69;60.10;95866.66;5009548;28;20093;-57
2023/05/10 08:45:00;;;;;;;2.35;0.98;;;;;;;26.50;64.49;95867.06;5009766;28;20085;-58
2023/05/10 08:47:33;;;;;;;4.88;0.80;;;;;;;27.82;65.75;95865.25;5011398;28;20086;-60
2023/05/10 08:50:04;;;;;;;1.80;0.90;;;;;;;29.52;51.76;95860.13;5010538;28;20060;-58
2023/05/10 08:52:34;;;;;;;1.88;1.13;;;;;;;28.33;51.84;95866.09;4993878;28;20038;-59
2023/05/10 08:55:06;;;;;;;2.65;0.80;;;;;;;26.25;63.88;95859.53;5011303;28;20048;-57
2023/05/10 08:57:34;;;;;;;0.80;0.80;;;;;;;27.18;62.47;95864.50;5001432;28;20038;-58
2023/05/10 09:00:03;;;;;;;1.10;0.90;;;;;;;26.36;59.48;95873.13;5004554;28;20092;-55
2023/05/10 09:02:32;;;;;;;2.55;0.70;;;;;;;26.38;59.91;95873.72;5010604;28;20096;-59
2023/05/10 09:05:00;;;;;;;0.90;0.70;;;;;;;25.52;67.89;95872.63;5005313;28;20076;-58
2023/05/10 09:07:32;;;;;;;2.13;0.68;;;;;;;25.68;63.38;95880.91;5003156;28;20030;-60
2023/05/10 09:10:05;;;;;;;;;;;;;;;26.12;62.19;95878.09;5005543;28;20553;-56
2023/05/10 09:12:33;;;;;;;0.80;0.60;;;;;;;26.21;64.78;95863.84;5014626;28;19987;-58
2023/05/10 09:15:02;;;;;;;1.75;0.85;;;;;;;27.14;60.44;95866.09;5009233;28;20511;-60
2023/05/10 09:17:31;;;;;;;2.58;0.80;;;;;;;27.84;63.47;95873.91;5002884;28;20442;-56
2023/05/10 09:19:59;;;;;;;1.60;1.40;;;;;;;27.52;55.51;95864.06;5004726;28;20085;-59
2023/05/10 09:22:28;;;;;;;6.55;0.93;;;;;;;27.56;59.88;95876.00;5004344;28;20085;-55
2023/05/10 09:25:09;;;;;;;1.42;0.90;;;;;;;27.50;62.39;95873.56;5008402;28;20793;-53
2023/05/10 09:27:38;;;;;;;0.93;0.80;;;;;;;26.20;61.82;95875.72;5010247;28;20077;-55
2023/05/10 09:30:07;;;;;;;1.15;0.93;;;;;;;26.99;61.31;95880.34;5007805;28;20085;-55
2023/05/10 09:32:39;;;;;;;0.98;0.80;;;;;;;27.01;60.10;95880.06;5008651;28;20065;-56
2023/05/10 09:35:09;;;;;;;3.92;1.30;;;;;;;28.04;57.87;95876.66;5002414;28;20093;-56
2023/05/10 09:37:41;;;;;;;;;;;;;;;28.47;50.93;95868.31;5008843;28;20042;-56
2023/05/10 09:40:13;;;;;;;0.80;0.80;;;;;;;29.05;49.61;95872.28;5002529;28;19957;-56
2023/05/10 09:42:43;;;;;;;0.50;0.47;;;;;;;27.59;49.81;95872.75;5009831;28;20100;-59
2023/05/10 09:45:11;;;;;;;3.47;0.80;;;;;;;28.73;49.45;95871.78;5000175;28;20081;-54
2023/05/10 09:47:39;;;;;;;1.52;0.82;;;;;;;27.85;49.13;95875.56;5011510;28;20077;-55
2023/05/10 09:50:08;;;;;;;7.45;0.90;;;;;;;28.56;49.40;95875.63;5001468;28;20074;-55
2023/05/10 09:52:47;;;;;;;2.88;0.60;;;;;;;29.72;47.56;95866.56;5008471;28;20088;-58
2023/05/10 09:55:18;;;;;;;0.57;0.50;;;;;;;28.07;49.81;95870.69;5003179;28;20120;-57
2023/05/10 09:57:47;;;;;;;2.33;0.75;;;;;;;27.98;51.52;95869.63;5007507;28;20085;-58
2023/05/10 10:00:19;;;;;;;0.85;0.52;;;;;;;27.38;54.17;95877.28;5008227;28;20053;-58
2023/05/10 10:02:49;;;;;;;3.40;0.50;;;;;;;28.43;50.63;95873.47;5009757;28;20074;-51
2023/05/10 10:05:18;;;;;;;0.60;0.40;;;;;;;27.56;53.66;95876.00;5004738;28;20081;-59
2023/05/10 10:07:49;;;;;;;0.60;0.60;;;;;;;28.47;52.73;95874.53;5008692;28;20061;-57
2023/05/10 10:10:19;;;;;;;5.68;0.50;;;;;;;28.12;49.19;95876.16;5008334;28;20081;-56
2023/05/10 10:12:54;;;;;;;0.50;0.50;;;;;;;28.12;49.95;95878.84;5009310;28;20089;-58
2023/05/10 10:15:22;;;;;;;0.82;0.70;;;;;;;27.17;51.09;95878.31;4998992;28;20276;-57
2023/05/10 10:17:52;;;;;;;0.95;0.57;;;;;;;26.69;51.35;95883.69;5007315;28;20506;-59
2023/05/10 10:20:22;;;;;;;0.68;0.60;;;;;;;27.42;53.40;95880.28;5007003;28;20157;-60
2023/05/10 10:22:51;;;;;;;1.52;0.90;;;;;;;27.35;52.99;95875.13;5008605;28;20928;-59
2023/05/10 10:25:22;;;;;;;0.85;0.77;;;;;;;28.72;49.20;95881.81;4985126;28;20087;-57
2023/05/10 10:28:02;;;;;;;1.15;0.70;;;;;;;28.30;51.37;95873.97;5008582;28;20084;-57
2023/05/10 10:30:34;;;;;;;3.20;0.73;;;;;;;28.70;48.47;95880.47;5002822;28;20084;-57
2023/05/10 10:33:19;;;;;;;1.52;0.90;;;;;;;29.05;46.47;95876.91;5006590;28;20499;-56
2023/05/10 10:35:58;;;;;;;1.85;1.05;;;;;;;29.45;44.67;95870.47;5008814;28;20609;-58
2023/05/10 10:38:37;;;;;;;1.23;1.00;;;;;;;28.65;46.41;95867.72;5010442;28;20082;-58
2023/05/10 10:41:11;;;;;;;1.70;1.10;;;;;;;28.90;47.17;95871.47;5006302;28;20681;-59
2023/05/10 10:43:40;;;;;;;1.05;0.75;;;;;;;28.80;44.96;95870.44;5008334;28;20120;-60
2023/05/10 10:46:14;;;;;;;1.08;0.77;;;;;;;29.53;45.89;95864.47;5006129;28;20081;-59
2023/05/10 10:48:47;;;;;;;0.77;0.60;;;;;;;28.97;44.93;95867.38;5006733;28;20085;-59
2023/05/10 10:51:16;;;;;;;2.30;0.50;;;;;;;29.19;44.91;95872.50;5004941;28;20081;-59
2023/05/10 10:53:44;;;;;;;2.05;0.50;;;;;;;28.59;44.26;95875.06;5007936;28;20085;-57
2023/05/10 10:56:15;;;;;;;1.15;0.50;;;;;;;29.40;42.04;95865.09;4997761;28;20085;-59
2023/05/10 10:58:50;;;;;;;1.13;0.68;;;;;;;28.78;42.40;95866.34;5004645;28;20474;-56
2023/05/10 11:01:20;;;;;;;1.23;0.50;;;;;;;28.72;43.56;95864.75;5007634;28;20528;-58
2023/05/10 11:04:20;;;;;;;1.83;0.77;;;;;;;28.70;43.80;95856.88;5004888;28;20081;-56
2023/05/10 11:06:48;;;;;;;2.45;0.80;;;;;;;29.65;40.93;95857.91;5005578;28;20073;-60
2023/05/10 11:09:17;;;;;;;1.05;0.60;;;;;;;29.40;42.86;95853.41;5008525;28;20104;-57
2023/05/10 11:11:55;;;;;;;1.85;0.93;;;;;;;30.86;41.57;95852.63;5009844;28;20092;-55
2023/05/10 11:14:24;;;;;;;1.95;0.90;;;;;;;30.40;41.43;95847.59;5004545;28;20120;-57
2023/05/10 11:16:52;;;;;;;2.35;0.98;;;;;;;31.20;39.64;95848.97;5006665;28;20545;-57
2023/05/10 11:19:21;;;;;;;1.98;1.20;;;;;;;29.91;43.28;95855.88;5004515;28;20057;-58
2023/05/10 11:21:50;;;;;;;1.42;0.80;;;;;;;30.10;40.71;95861.44;5010898;28;20108;-61
2023/05/10 11:24:21;;;;;;;1.52;0.50;;;;;;;29.92;42.26;95861.00;5007314;28;20088;-56
2023/05/10 11:26:51;;;;;;;2.28;1.23;;;;;;;29.95;42.20;95862.38;5013356;28;20085;-57
2023/05/10 11:29:20;;;;;;;1.20;0.70;;;;;;;29.54;43.05;95866.09;5010297;28;20089;-59
2023/05/10 11:31:50;;;;;;;1.88;0.98;;;;;;;29.84;42.21;95861.63;5008171;28;20082;-58
2023/05/10 11:34:26;;;;;;;4.30;1.67;;;;;;;29.63;42.34;95865.53;5009984;28;20097;-59
2023/05/10 11:37:01;;;;;;;1.85;0.82;;;;;;;29.97;41.87;95865.59;4999293;28;20113;-57
2023/05/10 11:39:53;;;;;;;1.60;1.13;;;;;;;30.39;39.91;95854.16;4992508;28;20676;-55
2023/05/10 11:42:29;;;;;;;1.23;1.00;;;;;;;30.37;42.15;95861.78;4989575;28;20421;-59
2023/05/10 11:44:59;;;;;;;2.70;1.10;;;;;;;29.30;42.54;95865.94;4995635;28;20137;-57